createdAt,value
2022-11-11T00:00:32.938Z,12.22
2022-11-11T00:02:49.550Z,12.31
2022-11-11T00:04:51.666Z,12.30
2022-11-11T00:06:54.169Z,12.34
2022-11-11T00:08:56.224Z,12.32
2022-11-11T00:11:24.094Z,12.18
2022-11-11T00:13:26.577Z,12.21
2022-11-11T00:15:29.595Z,12.22
2022-11-11T00:17:50.167Z,12.19
2022-11-11T00:20:11.007Z,12.17
2022-11-11T00:22:39.845Z,12.21
2022-11-11T00:25:00.395Z,12.18
2022-11-11T00:27:03.540Z,12.22
2022-11-11T00:29:05.371Z,12.19
2022-11-11T00:31:09.835Z,12.18
2022-11-11T00:33:12.568Z,12.18
2022-11-11T00:35:33.427Z,12.22
2022-11-11T00:37:35.944Z,12.25
2022-11-11T00:39:38.273Z,12.24
2022-11-11T00:41:40.238Z,12.21
2022-11-11T00:43:42.979Z,12.18
2022-11-11T00:45:45.167Z,12.12
2022-11-11T00:48:05.616Z,11.93
2022-11-11T00:50:30.659Z,11.87
2022-11-11T00:52:33.111Z,12.16
2022-11-11T00:54:35.093Z,12.05
2022-11-11T00:56:37.730Z,12.09
2022-11-11T00:58:39.943Z,12.22
2022-11-11T01:00:41.797Z,12.31
2022-11-11T01:02:43.734Z,12.53
2022-11-11T01:04:46.011Z,12.65
2022-11-11T01:06:47.819Z,12.73
2022-11-11T01:08:49.735Z,12.70
2022-11-11T01:10:52.123Z,12.76
2022-11-11T01:13:12.381Z,12.85
2022-11-11T01:15:14.784Z,12.92
2022-11-11T01:17:17.012Z,12.96
2022-11-11T01:19:18.917Z,12.89
2022-11-11T01:21:23.318Z,13.02
2022-11-11T01:23:25.622Z,13.04
2022-11-11T01:25:27.479Z,13.17
2022-11-11T01:27:29.347Z,13.16
2022-11-11T01:29:31.567Z,13.16
2022-11-11T01:31:33.468Z,13.18
2022-11-11T01:33:36.202Z,13.27
2022-11-11T01:35:40.213Z,13.31
2022-11-11T01:37:42.256Z,13.36
2022-11-11T01:39:44.165Z,13.37
2022-11-11T01:41:46.303Z,13.38
2022-11-11T01:43:48.421Z,13.47
2022-11-11T01:46:00.177Z,13.44
2022-11-11T01:48:26.445Z,13.42
2022-11-11T01:50:30.513Z,13.41
2022-11-11T01:52:40.039Z,13.51
2022-11-11T01:54:54.527Z,13.57
2022-11-11T01:57:02.783Z,13.59
2022-11-11T01:59:11.420Z,13.57
2022-11-11T02:01:13.809Z,13.54
2022-11-11T02:03:19.027Z,13.52
2022-11-11T02:05:41.261Z,13.39
2022-11-11T02:07:43.741Z,13.38
2022-11-11T02:09:47.758Z,13.35
2022-11-11T02:12:09.928Z,13.51
2022-11-11T02:14:33.034Z,13.59
2022-11-11T02:16:35.190Z,13.44
2022-11-11T02:18:37.176Z,13.52
2022-11-11T02:20:43.499Z,13.46
2022-11-11T02:22:54.040Z,13.56
2022-11-11T02:24:57.125Z,13.53
2022-11-11T02:27:01.919Z,13.57
2022-11-11T02:29:09.196Z,13.47
2022-11-11T02:31:11.100Z,13.35
2022-11-11T02:33:13.303Z,13.42
2022-11-11T02:35:31.590Z,13.24
2022-11-11T02:37:33.549Z,13.25
2022-11-11T02:40:02.465Z,13.16
2022-11-11T02:42:10.431Z,12.99
2022-11-11T02:44:12.301Z,13.01
2022-11-11T02:46:14.641Z,12.97
2022-11-11T02:48:16.673Z,12.86
2022-11-11T02:50:18.791Z,12.89
2022-11-11T02:52:21.429Z,12.90
2022-11-11T02:54:23.469Z,12.90
2022-11-11T02:56:44.591Z,12.91
2022-11-11T02:58:46.998Z,12.86
2022-11-11T03:00:48.850Z,12.77
2022-11-11T03:02:50.957Z,12.75
2022-11-11T03:04:54.931Z,12.79
2022-11-11T03:06:56.983Z,12.73
2022-11-11T03:08:59.070Z,12.58
2022-11-11T03:11:01.429Z,12.56
2022-11-11T03:13:03.626Z,12.61
2022-11-11T03:15:06.291Z,12.69
2022-11-11T03:17:27.379Z,12.70
2022-11-11T03:19:29.708Z,12.70
2022-11-11T03:23:53.688Z,12.70
2022-11-11T03:25:58.277Z,12.76
2022-11-11T03:28:00.263Z,12.82
2022-11-11T03:30:02.400Z,12.76
2022-11-11T03:32:04.669Z,12.79
2022-11-11T03:34:18.620Z,12.74
2022-11-11T03:36:20.925Z,12.76
2022-11-11T03:38:25.362Z,12.73
2022-11-11T03:40:27.536Z,12.75
2022-11-11T03:42:29.679Z,12.76
2022-11-11T03:44:31.505Z,12.83
2022-11-11T03:46:33.359Z,12.61
2022-11-11T03:48:35.760Z,12.43
2022-11-11T03:50:38.076Z,12.59
2022-11-11T03:52:46.129Z,12.58
2022-11-11T03:54:48.435Z,12.64
2022-11-11T03:56:50.194Z,12.61
2022-11-11T03:58:52.020Z,12.60
2022-11-11T04:00:55.691Z,12.69
2022-11-11T04:03:40.344Z,12.84
2022-11-11T04:06:00.699Z,12.94
2022-11-11T04:08:21.718Z,12.96
2022-11-11T04:10:23.756Z,12.90
2022-11-11T04:12:26.979Z,12.83
2022-11-11T04:14:47.590Z,12.73
2022-11-11T04:16:49.658Z,12.91
2022-11-11T04:19:29.730Z,12.96
2022-11-11T04:21:43.810Z,13.15
2022-11-11T04:23:45.603Z,13.28
2022-11-11T04:25:50.034Z,13.35
2022-11-11T04:28:12.206Z,13.34
2022-11-11T04:30:14.060Z,13.47
2022-11-11T04:32:35.911Z,13.27
2022-11-11T04:34:38.083Z,13.21
2022-11-11T04:36:39.876Z,13.30
2022-11-11T04:39:00.468Z,13.33
2022-11-11T04:41:05.610Z,13.34
2022-11-11T04:43:07.384Z,13.25
2022-11-11T04:45:30.698Z,13.31
2022-11-11T04:47:32.818Z,13.29
2022-11-11T04:49:34.603Z,13.15
2022-11-11T04:51:54.835Z,13.19
2022-11-11T04:53:57.096Z,13.25
2022-11-11T04:56:17.130Z,13.31
2022-11-11T04:58:21.632Z,13.39
2022-11-11T05:00:28.933Z,13.39
2022-11-11T05:02:51.820Z,13.40
2022-11-11T05:04:53.604Z,13.51
2022-11-11T05:07:14.344Z,13.29
2022-11-11T05:09:16.138Z,13.42
2022-11-11T05:11:19.008Z,13.50
2022-11-11T05:13:39.687Z,13.52
2022-11-11T05:16:02.155Z,13.48
2022-11-11T05:18:22.712Z,13.28
2022-11-11T05:20:43.469Z,13.42
2022-11-11T05:22:45.314Z,13.47
2022-11-11T05:25:05.670Z,13.51
2022-11-11T05:27:08.190Z,13.53
2022-11-11T05:29:09.991Z,13.66
2022-11-11T05:31:11.778Z,13.52
2022-11-11T05:33:13.989Z,13.52
2022-11-11T05:35:16.403Z,13.71
2022-11-11T05:37:18.879Z,13.75
2022-11-11T05:39:21.002Z,13.75
2022-11-11T05:41:22.824Z,13.69
2022-11-11T05:43:24.914Z,13.67
2022-11-11T05:45:27.318Z,13.67
2022-11-11T05:47:29.209Z,13.92
2022-11-11T05:49:31.063Z,13.82
2022-11-11T05:51:36.766Z,13.89
2022-11-11T05:53:40.847Z,13.78
2022-11-11T05:55:42.631Z,13.99
2022-11-11T05:57:45.048Z,13.96
2022-11-11T05:59:48.413Z,13.99
2022-11-11T06:01:50.472Z,14.02
2022-11-11T06:03:52.655Z,13.96
2022-11-11T06:05:54.619Z,14.07
2022-11-11T06:07:56.414Z,14.12
2022-11-11T06:10:18.815Z,14.04
2022-11-11T06:12:20.967Z,14.22
2022-11-11T06:14:22.872Z,14.13
2022-11-11T06:16:25.067Z,14.07
2022-11-11T06:18:30.897Z,14.06
2022-11-11T06:20:35.451Z,14.13
2022-11-11T06:22:56.191Z,14.16
2022-11-11T06:25:18.310Z,14.19
2022-11-11T06:27:20.099Z,14.21
2022-11-11T06:29:22.313Z,14.18
2022-11-11T06:31:26.227Z,14.30
2022-11-11T06:33:28.353Z,14.31
2022-11-11T06:35:30.762Z,14.34
2022-11-11T06:37:32.708Z,14.35
2022-11-11T06:39:37.440Z,14.18
2022-11-11T06:41:39.668Z,14.36
2022-11-11T06:43:42.784Z,14.33
2022-11-11T06:45:45.411Z,14.34
2022-11-11T06:47:47.600Z,14.28
2022-11-11T06:49:49.428Z,14.63
2022-11-11T06:51:51.391Z,14.61
2022-11-11T06:53:53.644Z,14.52
2022-11-11T06:55:55.876Z,14.52
2022-11-11T06:58:05.353Z,14.64
2022-11-11T07:00:08.297Z,14.69
2022-11-11T07:02:13.625Z,14.78
2022-11-11T07:04:15.440Z,14.77
2022-11-11T07:06:17.607Z,14.81
2022-11-11T07:08:19.510Z,14.85
2022-11-11T07:10:22.204Z,14.84
2022-11-11T07:12:24.364Z,14.85
2022-11-11T07:14:27.512Z,14.63
2022-11-11T07:16:29.537Z,14.88
2022-11-11T07:18:31.730Z,14.89
2022-11-11T07:20:34.091Z,15.00
2022-11-11T07:22:38.237Z,14.63
2022-11-11T07:24:40.731Z,14.76
2022-11-11T07:26:42.537Z,14.73
2022-11-11T07:28:44.404Z,14.74
2022-11-11T07:30:46.534Z,14.74
2022-11-11T07:32:50.557Z,14.69
2022-11-11T07:34:52.547Z,14.77
2022-11-11T07:36:54.758Z,14.78
2022-11-11T07:38:56.611Z,14.90
2022-11-11T07:40:58.495Z,14.93
2022-11-11T07:43:00.631Z,15.01
2022-11-11T07:45:02.499Z,15.06
2022-11-11T07:47:04.465Z,14.84
2022-11-11T07:49:06.707Z,14.87
2022-11-11T07:51:08.537Z,14.97
2022-11-11T07:53:10.359Z,14.98
2022-11-11T07:55:12.779Z,14.96
2022-11-11T07:57:14.625Z,14.89
2022-11-11T07:59:16.595Z,15.13
2022-11-11T08:01:19.244Z,15.07
2022-11-11T08:03:21.627Z,15.23
2022-11-11T08:05:23.961Z,15.26
2022-11-11T08:07:26.513Z,15.37
2022-11-11T08:09:28.631Z,15.45
2022-11-11T08:11:49.079Z,15.53
2022-11-11T08:13:52.238Z,15.71
2022-11-11T08:15:55.987Z,15.69
2022-11-11T08:17:57.786Z,15.87
2022-11-11T08:20:00.113Z,15.96
2022-11-11T08:22:02.119Z,16.16
2022-11-11T08:24:56.846Z,16.21
2022-11-11T08:26:29.819Z,16.22
2022-11-11T08:28:34.307Z,16.41
2022-11-11T08:30:36.099Z,16.50
2022-11-11T08:32:38.599Z,16.56
2022-11-11T08:34:40.515Z,16.59
2022-11-11T08:36:42.508Z,16.62
2022-11-11T08:38:44.918Z,16.83
2022-11-11T08:40:47.195Z,16.83
2022-11-11T08:42:49.195Z,16.86
2022-11-11T08:44:51.923Z,16.90
2022-11-11T08:46:53.805Z,16.89
2022-11-11T08:48:55.634Z,16.91
2022-11-11T08:50:58.538Z,16.85
2022-11-11T08:53:00.409Z,16.66
2022-11-11T08:55:02.235Z,16.65
2022-11-11T08:57:04.505Z,16.77
2022-11-11T08:59:07.079Z,16.82
2022-11-11T09:01:13.881Z,16.88
2022-11-11T09:03:16.388Z,16.73
2022-11-11T09:05:19.310Z,16.88
2022-11-11T09:07:21.229Z,17.16
2022-11-11T09:09:23.380Z,17.27
2022-11-11T09:11:25.183Z,17.30
2022-11-11T09:13:27.691Z,17.30
2022-11-11T09:15:31.118Z,17.45
2022-11-11T09:17:33.013Z,17.35
2022-11-11T09:19:34.779Z,17.33
2022-11-11T09:21:37.099Z,17.25
2022-11-11T09:23:38.896Z,17.34
2022-11-11T09:25:41.109Z,17.19
2022-11-11T09:27:43.841Z,17.24
2022-11-11T09:29:45.663Z,17.25
2022-11-11T09:31:47.576Z,17.09
2022-11-11T09:33:51.734Z,17.14
2022-11-11T09:35:54.514Z,17.25
2022-11-11T09:37:57.810Z,17.19
2022-11-11T09:39:59.921Z,17.20
2022-11-11T09:42:17.796Z,17.33
2022-11-11T09:44:40.676Z,17.26
2022-11-11T09:46:45.582Z,17.40
2022-11-11T09:49:23.056Z,17.31
2022-11-11T09:51:32.798Z,17.29
2022-11-11T09:53:40.709Z,17.35
2022-11-11T09:55:52.570Z,17.18
2022-11-11T09:57:59.620Z,17.35
2022-11-11T10:00:05.472Z,17.31
2022-11-11T10:02:18.153Z,17.25
2022-11-11T10:04:34.860Z,17.36
2022-11-11T10:06:37.574Z,17.33
2022-11-11T10:08:48.695Z,17.24
2022-11-11T10:10:53.500Z,17.11
2022-11-11T10:12:59.398Z,17.15
2022-11-11T10:15:04.059Z,17.05
2022-11-11T10:17:24.999Z,17.20
2022-11-11T10:19:34.578Z,17.16
2022-11-11T10:22:10.607Z,17.13
2022-11-11T10:24:14.792Z,17.10
2022-11-11T10:26:22.376Z,17.06
2022-11-11T10:28:31.474Z,16.91
2022-11-11T10:30:34.014Z,16.93
2022-11-11T10:32:36.596Z,16.83
2022-11-11T10:34:38.456Z,16.94
2022-11-11T10:36:56.920Z,17.14
2022-11-11T10:39:01.804Z,17.21
2022-11-11T10:41:34.422Z,17.42
2022-11-11T10:43:36.316Z,17.42
2022-11-11T10:45:55.691Z,17.57
2022-11-11T10:48:15.967Z,17.53
2022-11-11T10:50:36.731Z,17.58
2022-11-11T10:52:48.314Z,17.55
2022-11-11T10:54:57.336Z,17.55
2022-11-11T10:57:09.996Z,17.66
2022-11-11T10:59:26.471Z,17.50
2022-11-11T11:01:37.502Z,17.71
2022-11-11T11:03:47.266Z,17.69
2022-11-11T11:05:57.434Z,17.81
2022-11-11T11:08:07.195Z,17.76
2022-11-11T11:10:16.811Z,17.65
2022-11-11T11:12:26.394Z,17.61
2022-11-11T11:14:42.057Z,17.74
2022-11-11T11:16:51.346Z,17.67
2022-11-11T11:19:17.055Z,17.56
2022-11-11T11:21:18.968Z,17.38
2022-11-11T11:23:36.754Z,17.49
2022-11-11T11:25:38.972Z,17.49
2022-11-11T11:27:40.775Z,17.68
2022-11-11T11:29:44.752Z,17.55
2022-11-11T11:31:47.926Z,17.50
2022-11-11T11:33:52.994Z,17.50
2022-11-11T11:35:54.826Z,17.53
2022-11-11T11:37:57.172Z,17.52
2022-11-11T11:40:01.673Z,17.48
2022-11-11T11:42:03.555Z,17.49
2022-11-11T11:44:25.831Z,17.38
2022-11-11T11:46:35.643Z,17.76
2022-11-11T11:48:47.937Z,17.80
2022-11-11T11:50:56.688Z,17.84
2022-11-11T11:53:04.402Z,17.75
2022-11-11T11:55:15.808Z,17.67
2022-11-11T11:57:27.043Z,17.66
2022-11-11T12:00:04.074Z,17.60
2022-11-11T12:02:15.016Z,17.56
2022-11-11T12:04:40.955Z,17.64
2022-11-11T12:07:12.610Z,17.52
2022-11-11T12:09:31.562Z,17.72
2022-11-11T12:12:14.447Z,17.76
2022-11-11T12:14:58.039Z,17.75
2022-11-11T12:17:03.263Z,17.61
2022-11-11T12:19:16.863Z,17.60
2022-11-11T12:21:24.919Z,17.58
2022-11-11T12:24:03.744Z,17.49
2022-11-11T12:26:53.458Z,17.55
2022-11-11T12:29:25.001Z,17.69
2022-11-11T12:31:36.057Z,17.67
2022-11-11T12:33:59.891Z,17.65
2022-11-11T12:36:23.762Z,17.74
2022-11-11T12:38:37.848Z,17.74
2022-11-11T12:40:57.082Z,17.58
2022-11-11T12:43:27.364Z,17.70
2022-11-11T12:45:56.533Z,17.72
2022-11-11T12:48:11.567Z,17.47
2022-11-11T12:50:16.917Z,17.56
2022-11-11T12:52:54.715Z,17.57
2022-11-11T12:55:36.130Z,17.56
2022-11-11T12:57:51.530Z,17.32
2022-11-11T13:00:05.743Z,17.49
2022-11-11T13:02:38.938Z,17.60
2022-11-11T13:05:07.202Z,17.41
2022-11-11T13:07:25.436Z,17.33
2022-11-11T13:09:39.553Z,17.22
2022-11-11T13:12:18.149Z,17.21
2022-11-11T13:14:35.552Z,17.25
2022-11-11T13:16:37.350Z,17.17
2022-11-11T13:19:08.166Z,17.09
2022-11-11T13:21:18.287Z,16.96
2022-11-11T13:23:20.232Z,16.84
2022-11-11T13:25:24.902Z,17.14
2022-11-11T13:27:52.946Z,17.19
2022-11-11T13:30:12.599Z,17.21
2022-11-11T13:32:18.280Z,17.08
2022-11-11T13:34:21.453Z,16.99
2022-11-11T13:36:27.748Z,16.97
2022-11-11T13:38:36.235Z,16.94
2022-11-11T13:40:45.607Z,17.06
2022-11-11T13:42:50.974Z,17.04
2022-11-11T13:44:56.957Z,16.97
2022-11-11T13:47:07.777Z,16.82
2022-11-11T13:49:26.585Z,16.89
2022-11-11T13:51:42.894Z,16.76
2022-11-11T13:53:47.941Z,16.63
2022-11-11T13:55:53.179Z,16.58
2022-11-11T13:57:55.706Z,16.64
2022-11-11T14:00:03.262Z,16.63
2022-11-11T14:02:32.466Z,16.61
2022-11-11T14:05:04.076Z,16.38
2022-11-11T14:07:07.942Z,16.35
2022-11-11T14:09:09.795Z,16.39
2022-11-11T14:11:24.361Z,16.40
2022-11-11T14:13:34.784Z,16.36
2022-11-11T14:15:36.749Z,16.45
2022-11-11T14:17:44.841Z,16.38
2022-11-11T14:19:46.944Z,16.25
2022-11-11T14:21:51.323Z,16.01
2022-11-11T14:23:55.697Z,16.28
2022-11-11T14:26:06.391Z,16.41
2022-11-11T14:28:30.731Z,16.32
2022-11-11T14:30:40.492Z,16.15
2022-11-11T14:32:48.091Z,16.37
2022-11-11T14:35:07.319Z,16.32
2022-11-11T14:37:31.514Z,16.33
2022-11-11T14:39:41.386Z,16.34
2022-11-11T14:41:47.857Z,16.22
2022-11-11T14:43:50.165Z,16.29
2022-11-11T14:45:53.495Z,16.29
2022-11-11T14:47:56.575Z,16.17
2022-11-11T14:49:59.870Z,16.14
2022-11-11T14:52:02.268Z,16.06
2022-11-11T14:54:07.083Z,16.14
2022-11-11T14:56:17.868Z,16.18
2022-11-11T14:58:24.246Z,16.12
2022-11-11T15:00:30.068Z,16.14
2022-11-11T15:02:38.575Z,16.12
2022-11-11T15:04:40.895Z,16.14
2022-11-11T15:06:48.943Z,16.15
2022-11-11T15:09:12.618Z,15.89
2022-11-11T15:11:29.676Z,15.80
2022-11-11T15:13:47.939Z,15.71
2022-11-11T15:16:09.027Z,15.67
2022-11-11T15:18:13.939Z,15.50
2022-11-11T15:20:53.248Z,15.66
2022-11-11T15:22:55.421Z,15.48
2022-11-11T15:25:17.871Z,15.27
2022-11-11T15:27:41.487Z,15.27
2022-11-11T15:30:02.205Z,15.24
2022-11-11T15:32:36.989Z,15.16
2022-11-11T15:34:56.011Z,15.16
2022-11-11T15:37:06.020Z,15.09
2022-11-11T15:39:14.155Z,14.90
2022-11-11T15:41:29.492Z,15.11
2022-11-11T15:43:38.616Z,15.17
2022-11-11T15:45:40.959Z,15.20
2022-11-11T15:47:42.875Z,15.28
2022-11-11T15:49:47.822Z,15.31
2022-11-11T15:51:56.582Z,15.30
2022-11-11T15:54:16.830Z,15.40
2022-11-11T15:56:33.333Z,15.51
2022-11-11T15:58:35.208Z,15.45
2022-11-11T16:00:38.155Z,15.43
2022-11-11T16:02:41.936Z,15.47
2022-11-11T16:04:55.756Z,15.51
2022-11-11T16:06:58.323Z,15.54
2022-11-11T16:09:00.753Z,15.61
2022-11-11T16:11:03.046Z,15.64
2022-11-11T16:13:14.033Z,15.66
2022-11-11T16:15:33.049Z,15.55
2022-11-11T16:17:41.389Z,15.66
2022-11-11T16:19:49.143Z,15.68
2022-11-11T16:21:59.965Z,15.63
2022-11-11T16:24:02.796Z,15.61
2022-11-11T16:26:06.322Z,15.79
2022-11-11T16:28:11.703Z,15.78
2022-11-11T16:30:32.156Z,15.74
2022-11-11T16:32:35.030Z,15.76
2022-11-11T16:34:43.406Z,15.81
2022-11-11T16:37:01.848Z,15.83
2022-11-11T16:39:34.102Z,15.88
2022-11-11T16:41:41.615Z,15.83
2022-11-11T16:43:43.864Z,15.85
2022-11-11T16:46:08.218Z,15.85
2022-11-11T16:48:33.762Z,15.86
2022-11-11T16:50:53.912Z,15.77
2022-11-11T16:52:58.056Z,15.87
2022-11-11T16:55:01.202Z,15.87
2022-11-11T16:57:03.155Z,15.75
2022-11-11T16:59:19.207Z,15.86
2022-11-11T17:01:21.433Z,15.93
2022-11-11T17:03:27.693Z,15.91
2022-11-11T17:06:08.942Z,16.02
2022-11-11T17:08:38.853Z,16.06
2022-11-11T17:10:40.738Z,16.02
2022-11-11T17:12:42.921Z,16.06
2022-11-11T17:14:45.097Z,15.82
2022-11-11T17:16:47.032Z,15.96
2022-11-11T17:18:49.204Z,15.83
2022-11-11T17:20:51.747Z,16.03
2022-11-11T17:22:56.850Z,16.03
2022-11-11T17:24:58.760Z,15.96
2022-11-11T17:27:00.999Z,15.98
2022-11-11T17:29:03.130Z,15.88
2022-11-11T17:31:06.325Z,16.02
2022-11-11T17:33:08.608Z,15.82
2022-11-11T17:35:11.948Z,15.93
2022-11-11T17:37:13.927Z,15.70
2022-11-11T17:39:16.239Z,15.77
2022-11-11T17:41:18.303Z,15.85
2022-11-11T17:43:20.843Z,15.77
2022-11-11T17:45:23.076Z,15.77
2022-11-11T17:47:25.269Z,15.83
2022-11-11T17:49:55.178Z,15.80
2022-11-11T17:51:49.383Z,15.87
2022-11-11T17:53:52.152Z,15.92
2022-11-11T17:55:54.423Z,15.88
2022-11-11T17:57:58.355Z,15.88
2022-11-11T18:00:00.282Z,15.87
2022-11-11T18:02:03.298Z,15.98
2022-11-11T18:04:06.411Z,16.02
2022-11-11T18:06:09.585Z,15.58
2022-11-11T18:08:11.378Z,15.95
2022-11-11T18:10:14.515Z,15.82
2022-11-11T18:12:16.361Z,16.01
2022-11-11T18:14:18.463Z,16.06
2022-11-11T18:16:22.250Z,16.01
2022-11-11T18:18:24.321Z,16.09
2022-11-11T18:20:26.106Z,15.99
2022-11-11T18:22:28.920Z,15.94
2022-11-11T18:24:30.750Z,16.02
2022-11-11T18:26:33.121Z,15.88
2022-11-11T18:28:38.118Z,15.88
2022-11-11T18:30:40.155Z,15.94
2022-11-11T18:32:42.008Z,15.93
2022-11-11T18:34:44.768Z,15.98
2022-11-11T18:36:46.566Z,15.95
2022-11-11T18:38:48.467Z,15.89
2022-11-11T18:40:50.596Z,15.85
2022-11-11T18:42:52.819Z,15.79
2022-11-11T18:44:54.588Z,15.86
2022-11-11T18:46:56.890Z,15.85
2022-11-11T18:49:01.064Z,15.70
2022-11-11T18:51:03.707Z,15.72
2022-11-11T18:53:05.849Z,15.89
2022-11-11T18:55:08.112Z,15.97
2022-11-11T18:57:09.866Z,15.94
2022-11-11T18:59:12.206Z,15.92
2022-11-11T19:01:22.587Z,15.90
2022-11-11T19:03:25.120Z,15.91
2022-11-11T19:05:27.448Z,15.89
2022-11-11T19:07:29.257Z,15.75
2022-11-11T19:09:31.026Z,15.75
2022-11-11T19:11:37.111Z,15.78
2022-11-11T19:13:38.991Z,15.78
2022-11-11T19:15:41.794Z,15.82
2022-11-11T19:17:43.995Z,15.72
2022-11-11T19:19:45.830Z,15.62
2022-11-11T19:21:47.662Z,15.69
2022-11-11T19:23:51.642Z,15.69
2022-11-11T19:25:58.248Z,15.57
2022-11-11T19:28:00.115Z,15.49
2022-11-11T19:30:02.333Z,15.38
2022-11-11T19:32:04.507Z,15.45
2022-11-11T19:34:06.406Z,15.44
2022-11-11T19:36:11.244Z,15.51
2022-11-11T19:38:13.078Z,15.51
2022-11-11T19:40:15.137Z,15.39
2022-11-11T19:42:17.466Z,15.38
2022-11-11T19:44:19.434Z,15.54
2022-11-11T19:46:21.791Z,15.36
2022-11-11T19:48:24.090Z,15.56
2022-11-11T19:50:25.888Z,15.58
2022-11-11T19:52:27.764Z,15.59
2022-11-11T19:54:29.910Z,15.56
2022-11-11T19:56:31.828Z,15.53
2022-11-11T19:58:34.032Z,15.54
2022-11-11T20:00:36.429Z,15.53
2022-11-11T20:02:38.248Z,15.63
2022-11-11T20:04:40.138Z,15.64
2022-11-11T20:06:42.852Z,15.56
2022-11-11T20:08:44.764Z,15.61
2022-11-11T20:10:47.103Z,15.64
2022-11-11T20:12:52.062Z,15.61
2022-11-11T20:14:53.912Z,15.56
2022-11-11T20:16:55.796Z,15.50
2022-11-11T20:18:59.754Z,15.46
2022-11-11T20:21:03.406Z,15.43
2022-11-11T20:23:06.176Z,15.58
2022-11-11T20:25:08.311Z,15.45
2022-11-11T20:27:10.184Z,15.23
2022-11-11T20:29:12.204Z,15.45
2022-11-11T20:31:18.461Z,15.58
2022-11-11T20:33:20.225Z,15.72
2022-11-11T20:35:22.066Z,15.45
2022-11-11T20:37:24.301Z,15.53
2022-11-11T20:39:26.057Z,15.56
2022-11-11T20:41:27.878Z,15.52
2022-11-11T20:43:30.905Z,15.52
2022-11-11T20:45:32.828Z,15.60
2022-11-11T20:47:34.725Z,15.84
2022-11-11T20:49:36.935Z,15.80
2022-11-11T20:51:38.774Z,15.77
2022-11-11T20:53:41.229Z,15.82
2022-11-11T20:55:43.430Z,15.79
2022-11-11T20:57:45.222Z,15.77
2022-11-11T20:59:47.033Z,15.71
2022-11-11T21:01:49.391Z,15.68
2022-11-11T21:03:56.002Z,15.69
2022-11-11T21:06:10.255Z,15.68
2022-11-11T21:08:12.431Z,15.65
2022-11-11T21:10:14.495Z,15.72
2022-11-11T21:12:16.339Z,15.60
2022-11-11T21:14:18.586Z,15.44
2022-11-11T21:16:22.785Z,15.54
2022-11-11T21:18:24.623Z,15.57
2022-11-11T21:20:26.870Z,15.74
2022-11-11T21:22:28.664Z,15.67
2022-11-11T21:24:30.538Z,15.67
2022-11-11T21:26:35.890Z,15.73
2022-11-11T21:28:39.641Z,15.78
2022-11-11T21:30:41.471Z,15.83
2022-11-11T21:32:43.863Z,15.85
2022-11-11T21:34:45.850Z,15.84
2022-11-11T21:36:47.655Z,15.88
2022-11-11T21:38:50.595Z,15.86
2022-11-11T21:40:52.360Z,15.88
2022-11-11T21:42:58.229Z,15.85
2022-11-11T21:45:00.770Z,15.88
2022-11-11T21:47:02.926Z,15.96
2022-11-11T21:49:05.799Z,15.92
2022-11-11T21:51:19.985Z,15.90
2022-11-11T21:53:21.937Z,15.89
2022-11-11T21:55:23.740Z,15.84
2022-11-11T21:57:25.933Z,15.85
2022-11-11T21:59:27.690Z,16.02
2022-11-11T22:01:32.553Z,16.10
2022-11-11T22:03:36.187Z,16.06
2022-11-11T22:05:38.142Z,15.96
2022-11-11T22:07:39.968Z,15.98
2022-11-11T22:09:42.545Z,15.92
2022-11-11T22:11:44.358Z,15.85
2022-11-11T22:13:46.729Z,15.97
2022-11-11T22:15:57.979Z,15.89
2022-11-11T22:18:00.126Z,15.95
2022-11-11T22:20:01.885Z,16.01
2022-11-11T22:22:04.367Z,16.05
2022-11-11T22:24:09.261Z,16.02
2022-11-11T22:26:11.411Z,15.95
2022-11-11T22:28:13.566Z,15.98
2022-11-11T22:30:15.686Z,15.84
2022-11-11T22:32:17.491Z,15.85
2022-11-11T22:34:19.806Z,15.93
2022-11-11T22:36:21.616Z,16.01
2022-11-11T22:38:23.761Z,15.98
2022-11-11T22:40:26.334Z,16.06
2022-11-11T22:42:28.535Z,16.10
2022-11-11T22:44:30.836Z,16.10
2022-11-11T22:46:35.590Z,16.11
2022-11-11T22:48:38.867Z,15.98
2022-11-11T22:50:40.783Z,16.11
2022-11-11T22:52:47.922Z,16.05
2022-11-11T22:54:49.743Z,16.06
2022-11-11T22:56:51.613Z,16.17
2022-11-11T22:58:54.627Z,16.21
2022-11-11T23:01:01.821Z,16.10
2022-11-11T23:03:03.745Z,16.23
2022-11-11T23:05:05.963Z,16.17
2022-11-11T23:07:07.792Z,16.24
2022-11-11T23:09:10.366Z,16.16
2022-11-11T23:11:14.112Z,16.06
2022-11-11T23:13:15.905Z,16.03
2022-11-11T23:15:17.790Z,16.00
2022-11-11T23:17:19.951Z,15.99
2022-11-11T23:19:27.020Z,15.92
2022-11-11T23:21:31.179Z,16.04
2022-11-11T23:23:34.921Z,16.06
2022-11-11T23:25:36.717Z,15.97
2022-11-11T23:27:38.554Z,15.97
2022-11-11T23:29:40.670Z,15.93
2022-11-11T23:31:42.456Z,15.91
2022-11-11T23:33:46.654Z,15.95
2022-11-11T23:35:48.803Z,15.97
2022-11-11T23:37:50.659Z,15.94
2022-11-11T23:39:52.500Z,15.94
2022-11-11T23:41:54.598Z,16.05
2022-11-11T23:43:56.526Z,16.05
2022-11-11T23:45:58.706Z,15.94
2022-11-11T23:48:01.041Z,15.70
2022-11-11T23:50:02.848Z,15.85
2022-11-11T23:52:04.751Z,15.78
2022-11-11T23:54:06.912Z,15.71
2022-11-11T23:56:08.843Z,15.70
2022-11-11T23:58:11.787Z,15.73
